sensor_id;sensor_type;location;lat;lon;timestamp;P1;durP1;ratioP1;P2;durP2;ratioP2
48623;SDS011;34422;45.802;16.114;2023-06-04T00:02:18;8.82;;;5.78;;
48623;SDS011;34422;45.802;16.114;2023-06-04T00:04:45;8.15;;;5.80;;
48623;SDS011;34422;45.802;16.114;2023-06-04T00:07:12;9.55;;;6.07;;
48623;SDS011;34422;45.802;16.114;2023-06-04T00:09:39;9.43;;;6.20;;
48623;SDS011;34422;45.802;16.114;2023-06-04T00:12:06;8.82;;;5.95;;
48623;SDS011;34422;45.802;16.114;2023-06-04T00:14:33;9.13;;;5.72;;
48623;SDS011;34422;45.802;16.114;2023-06-04T00:17:00;11.73;;;6.15;;
48623;SDS011;34422;45.802;16.114;2023-06-04T00:19:27;11.93;;;6.15;;
48623;SDS011;34422;45.802;16.114;2023-06-04T00:21:54;7.97;;;5.05;;
48623;SDS011;34422;45.802;16.114;2023-06-04T00:24:21;10.85;;;6.13;;
48623;SDS011;34422;45.802;16.114;2023-06-04T00:26:48;8.80;;;6.18;;
48623;SDS011;34422;45.802;16.114;2023-06-04T00:29:15;10.23;;;5.63;;
48623;SDS011;34422;45.802;16.114;2023-06-04T00:31:41;10.40;;;5.97;;
48623;SDS011;34422;45.802;16.114;2023-06-04T00:34:09;8.32;;;5.57;;
48623;SDS011;34422;45.802;16.114;2023-06-04T00:36:36;11.43;;;6.10;;
48623;SDS011;34422;45.802;16.114;2023-06-04T00:39:03;9.63;;;6.20;;
48623;SDS011;34422;45.802;16.114;2023-06-04T00:41:30;8.50;;;5.90;;
48623;SDS011;34422;45.802;16.114;2023-06-04T00:43:57;11.60;;;6.85;;
48623;SDS011;34422;45.802;16.114;2023-06-04T00:46:24;10.18;;;6.07;;
48623;SDS011;34422;45.802;16.114;2023-06-04T00:48:53;10.93;;;5.78;;
48623;SDS011;34422;45.802;16.114;2023-06-04T00:51:21;10.60;;;6.38;;
48623;SDS011;34422;45.802;16.114;2023-06-04T00:53:52;8.40;;;5.53;;
48623;SDS011;34422;45.802;16.114;2023-06-04T00:58:46;9.43;;;6.03;;
48623;SDS011;34422;45.802;16.114;2023-06-04T01:01:23;9.75;;;6.25;;
48623;SDS011;34422;45.802;16.114;2023-06-04T01:03:52;9.85;;;5.93;;
48623;SDS011;34422;45.802;16.114;2023-06-04T01:06:33;10.13;;;6.22;;
48623;SDS011;34422;45.802;16.114;2023-06-04T01:09:05;9.80;;;5.43;;
48623;SDS011;34422;45.802;16.114;2023-06-04T01:11:32;11.30;;;5.93;;
48623;SDS011;34422;45.802;16.114;2023-06-04T01:14:04;11.50;;;5.95;;
48623;SDS011;34422;45.802;16.114;2023-06-04T01:16:36;8.73;;;5.18;;
48623;SDS011;34422;45.802;16.114;2023-06-04T01:19:22;12.20;;;5.82;;
48623;SDS011;34422;45.802;16.114;2023-06-04T01:21:58;10.23;;;6.18;;
48623;SDS011;34422;45.802;16.114;2023-06-04T01:24:29;8.82;;;5.10;;
48623;SDS011;34422;45.802;16.114;2023-06-04T01:27:03;7.55;;;4.97;;
48623;SDS011;34422;45.802;16.114;2023-06-04T01:29:32;7.88;;;5.80;;
48623;SDS011;34422;45.802;16.114;2023-06-04T01:32:02;8.43;;;5.18;;
48623;SDS011;34422;45.802;16.114;2023-06-04T01:34:30;8.63;;;5.03;;
48623;SDS011;34422;45.802;16.114;2023-06-04T01:36:57;7.28;;;4.53;;
48623;SDS011;34422;45.802;16.114;2023-06-04T01:39:24;9.30;;;5.70;;
48623;SDS011;34422;45.802;16.114;2023-06-04T01:41:50;9.55;;;6.10;;
48623;SDS011;34422;45.802;16.114;2023-06-04T01:44:17;9.15;;;5.93;;
48623;SDS011;34422;45.802;16.114;2023-06-04T01:46:44;8.38;;;4.80;;
48623;SDS011;34422;45.802;16.114;2023-06-04T01:49:11;12.73;;;5.85;;
48623;SDS011;34422;45.802;16.114;2023-06-04T01:51:38;10.63;;;5.72;;
48623;SDS011;34422;45.802;16.114;2023-06-04T01:54:04;11.45;;;5.60;;
48623;SDS011;34422;45.802;16.114;2023-06-04T01:56:31;12.07;;;6.18;;
48623;SDS011;34422;45.802;16.114;2023-06-04T01:58:59;9.95;;;5.63;;
48623;SDS011;34422;45.802;16.114;2023-06-04T02:01:27;9.90;;;5.63;;
48623;SDS011;34422;45.802;16.114;2023-06-04T02:03:54;9.60;;;6.00;;
48623;SDS011;34422;45.802;16.114;2023-06-04T02:06:21;9.05;;;5.28;;
48623;SDS011;34422;45.802;16.114;2023-06-04T02:08:48;10.77;;;5.80;;
48623;SDS011;34422;45.802;16.114;2023-06-04T02:11:14;10.50;;;5.40;;
48623;SDS011;34422;45.802;16.114;2023-06-04T02:13:41;9.77;;;5.65;;
48623;SDS011;34422;45.802;16.114;2023-06-04T02:16:08;10.43;;;5.40;;
48623;SDS011;34422;45.802;16.114;2023-06-04T02:18:35;8.77;;;5.72;;
48623;SDS011;34422;45.802;16.114;2023-06-04T02:21:01;9.95;;;6.53;;
48623;SDS011;34422;45.802;16.114;2023-06-04T02:23:28;11.25;;;5.72;;
48623;SDS011;34422;45.802;16.114;2023-06-04T02:25:55;14.38;;;6.55;;
48623;SDS011;34422;45.802;16.114;2023-06-04T02:28:22;9.73;;;5.65;;
48623;SDS011;34422;45.802;16.114;2023-06-04T02:30:49;10.68;;;5.60;;
48623;SDS011;34422;45.802;16.114;2023-06-04T02:33:16;10.80;;;6.13;;
48623;SDS011;34422;45.802;16.114;2023-06-04T02:35:43;8.02;;;5.55;;
48623;SDS011;34422;45.802;16.114;2023-06-04T02:38:10;10.98;;;5.85;;
48623;SDS011;34422;45.802;16.114;2023-06-04T02:40:37;9.13;;;5.45;;
48623;SDS011;34422;45.802;16.114;2023-06-04T02:43:04;7.55;;;5.18;;
48623;SDS011;34422;45.802;16.114;2023-06-04T02:45:32;8.68;;;4.90;;
48623;SDS011;34422;45.802;16.114;2023-06-04T02:47:58;9.27;;;5.72;;
48623;SDS011;34422;45.802;16.114;2023-06-04T02:50:25;9.32;;;5.85;;
48623;SDS011;34422;45.802;16.114;2023-06-04T02:52:52;7.95;;;5.70;;
48623;SDS011;34422;45.802;16.114;2023-06-04T02:55:19;9.73;;;5.47;;
48623;SDS011;34422;45.802;16.114;2023-06-04T02:57:46;10.65;;;5.53;;
48623;SDS011;34422;45.802;16.114;2023-06-04T03:00:13;9.93;;;5.65;;
48623;SDS011;34422;45.802;16.114;2023-06-04T03:02:41;11.27;;;6.47;;
48623;SDS011;34422;45.802;16.114;2023-06-04T03:05:09;11.48;;;6.60;;
48623;SDS011;34422;45.802;16.114;2023-06-04T03:07:39;10.47;;;5.73;;
48623;SDS011;34422;45.802;16.114;2023-06-04T03:10:09;9.63;;;6.10;;
48623;SDS011;34422;45.802;16.114;2023-06-04T03:12:37;11.95;;;6.25;;
48623;SDS011;34422;45.802;16.114;2023-06-04T03:15:04;11.90;;;6.30;;
48623;SDS011;34422;45.802;16.114;2023-06-04T03:17:32;8.50;;;5.63;;
48623;SDS011;34422;45.802;16.114;2023-06-04T03:19:59;10.38;;;5.70;;
48623;SDS011;34422;45.802;16.114;2023-06-04T03:22:26;8.82;;;6.55;;
48623;SDS011;34422;45.802;16.114;2023-06-04T03:24:54;9.75;;;6.10;;
48623;SDS011;34422;45.802;16.114;2023-06-04T03:27:21;8.13;;;5.50;;
48623;SDS011;34422;45.802;16.114;2023-06-04T03:29:48;8.95;;;5.22;;
48623;SDS011;34422;45.802;16.114;2023-06-04T03:32:15;8.27;;;5.32;;
48623;SDS011;34422;45.802;16.114;2023-06-04T03:34:42;11.15;;;5.35;;
48623;SDS011;34422;45.802;16.114;2023-06-04T03:37:09;9.02;;;5.50;;
48623;SDS011;34422;45.802;16.114;2023-06-04T03:39:36;9.40;;;5.80;;
48623;SDS011;34422;45.802;16.114;2023-06-04T03:42:03;9.95;;;5.38;;
48623;SDS011;34422;45.802;16.114;2023-06-04T03:44:31;10.88;;;5.70;;
48623;SDS011;34422;45.802;16.114;2023-06-04T03:46:58;9.10;;;6.00;;
48623;SDS011;34422;45.802;16.114;2023-06-04T03:49:24;8.07;;;5.63;;
48623;SDS011;34422;45.802;16.114;2023-06-04T03:51:51;9.68;;;5.80;;
48623;SDS011;34422;45.802;16.114;2023-06-04T03:54:18;10.00;;;5.75;;
48623;SDS011;34422;45.802;16.114;2023-06-04T03:56:45;13.48;;;6.35;;
48623;SDS011;34422;45.802;16.114;2023-06-04T03:59:12;8.63;;;5.82;;
48623;SDS011;34422;45.802;16.114;2023-06-04T04:01:39;11.25;;;6.40;;
48623;SDS011;34422;45.802;16.114;2023-06-04T04:04:06;10.25;;;6.05;;
48623;SDS011;34422;45.802;16.114;2023-06-04T04:06:33;9.68;;;6.10;;
48623;SDS011;34422;45.802;16.114;2023-06-04T04:09:00;10.50;;;6.78;;
48623;SDS011;34422;45.802;16.114;2023-06-04T04:11:26;10.45;;;5.72;;
48623;SDS011;34422;45.802;16.114;2023-06-04T04:13:53;9.30;;;6.43;;
48623;SDS011;34422;45.802;16.114;2023-06-04T04:16:20;10.35;;;6.13;;
48623;SDS011;34422;45.802;16.114;2023-06-04T04:18:47;10.50;;;5.90;;
48623;SDS011;34422;45.802;16.114;2023-06-04T04:21:14;8.73;;;5.40;;
48623;SDS011;34422;45.802;16.114;2023-06-04T04:23:40;10.02;;;5.72;;
48623;SDS011;34422;45.802;16.114;2023-06-04T04:26:08;12.45;;;6.50;;
48623;SDS011;34422;45.802;16.114;2023-06-04T04:28:36;11.05;;;6.40;;
48623;SDS011;34422;45.802;16.114;2023-06-04T04:31:03;9.52;;;5.97;;
48623;SDS011;34422;45.802;16.114;2023-06-04T04:33:30;10.38;;;6.45;;
48623;SDS011;34422;45.802;16.114;2023-06-04T04:36:06;8.70;;;5.47;;
48623;SDS011;34422;45.802;16.114;2023-06-04T04:38:35;9.15;;;5.32;;
48623;SDS011;34422;45.802;16.114;2023-06-04T04:41:03;8.70;;;5.53;;
48623;SDS011;34422;45.802;16.114;2023-06-04T04:43:31;13.27;;;6.07;;
48623;SDS011;34422;45.802;16.114;2023-06-04T04:45:59;12.18;;;6.10;;
48623;SDS011;34422;45.802;16.114;2023-06-04T04:48:26;10.77;;;6.18;;
48623;SDS011;34422;45.802;16.114;2023-06-04T04:50:53;9.20;;;5.55;;
48623;SDS011;34422;45.802;16.114;2023-06-04T04:53:20;9.27;;;5.82;;
48623;SDS011;34422;45.802;16.114;2023-06-04T04:55:47;8.95;;;5.47;;
48623;SDS011;34422;45.802;16.114;2023-06-04T04:58:14;10.30;;;5.57;;
48623;SDS011;34422;45.802;16.114;2023-06-04T05:00:42;10.23;;;5.47;;
48623;SDS011;34422;45.802;16.114;2023-06-04T05:03:09;11.65;;;5.30;;
48623;SDS011;34422;45.802;16.114;2023-06-04T05:05:36;8.35;;;5.38;;
48623;SDS011;34422;45.802;16.114;2023-06-04T05:08:02;8.98;;;5.10;;
48623;SDS011;34422;45.802;16.114;2023-06-04T05:10:29;8.95;;;5.15;;
48623;SDS011;34422;45.802;16.114;2023-06-04T05:12:57;9.05;;;5.32;;
48623;SDS011;34422;45.802;16.114;2023-06-04T05:15:26;7.38;;;4.65;;
48623;SDS011;34422;45.802;16.114;2023-06-04T05:17:53;9.13;;;5.10;;
48623;SDS011;34422;45.802;16.114;2023-06-04T05:20:20;11.40;;;5.07;;
48623;SDS011;34422;45.802;16.114;2023-06-04T05:22:47;8.40;;;5.13;;
48623;SDS011;34422;45.802;16.114;2023-06-04T05:25:15;8.95;;;5.55;;
48623;SDS011;34422;45.802;16.114;2023-06-04T05:27:43;7.10;;;4.63;;
48623;SDS011;34422;45.802;16.114;2023-06-04T05:30:10;17.25;;;4.80;;
48623;SDS011;34422;45.802;16.114;2023-06-04T05:32:38;12.50;;;5.72;;
48623;SDS011;34422;45.802;16.114;2023-06-04T05:35:07;8.30;;;5.15;;
48623;SDS011;34422;45.802;16.114;2023-06-04T05:37:34;7.57;;;4.80;;
48623;SDS011;34422;45.802;16.114;2023-06-04T05:40:01;12.48;;;4.93;;
48623;SDS011;34422;45.802;16.114;2023-06-04T05:42:29;10.57;;;4.85;;
48623;SDS011;34422;45.802;16.114;2023-06-04T05:44:56;9.27;;;4.72;;
48623;SDS011;34422;45.802;16.114;2023-06-04T05:47:23;11.68;;;5.50;;
48623;SDS011;34422;45.802;16.114;2023-06-04T05:49:50;12.02;;;4.97;;
48623;SDS011;34422;45.802;16.114;2023-06-04T05:52:17;13.68;;;5.03;;
48623;SDS011;34422;45.802;16.114;2023-06-04T05:54:43;9.90;;;4.90;;
48623;SDS011;34422;45.802;16.114;2023-06-04T05:57:10;9.63;;;4.88;;
48623;SDS011;34422;45.802;16.114;2023-06-04T05:59:37;10.43;;;4.85;;
48623;SDS011;34422;45.802;16.114;2023-06-04T06:02:04;8.40;;;4.78;;
48623;SDS011;34422;45.802;16.114;2023-06-04T06:04:31;12.25;;;4.90;;
48623;SDS011;34422;45.802;16.114;2023-06-04T06:06:58;8.80;;;4.97;;
48623;SDS011;34422;45.802;16.114;2023-06-04T06:09:24;10.95;;;5.15;;
48623;SDS011;34422;45.802;16.114;2023-06-04T06:11:51;8.25;;;4.88;;
48623;SDS011;34422;45.802;16.114;2023-06-04T06:14:18;7.93;;;4.93;;
48623;SDS011;34422;45.802;16.114;2023-06-04T06:16:45;7.40;;;5.28;;
48623;SDS011;34422;45.802;16.114;2023-06-04T06:19:13;7.70;;;4.75;;
48623;SDS011;34422;45.802;16.114;2023-06-04T06:21:40;9.52;;;5.05;;
48623;SDS011;34422;45.802;16.114;2023-06-04T06:24:06;7.30;;;3.95;;
48623;SDS011;34422;45.802;16.114;2023-06-04T06:26:33;10.57;;;4.85;;
48623;SDS011;34422;45.802;16.114;2023-06-04T06:29:00;9.60;;;5.30;;
48623;SDS011;34422;45.802;16.114;2023-06-04T06:31:27;8.88;;;4.68;;
48623;SDS011;34422;45.802;16.114;2023-06-04T06:33:54;9.77;;;5.43;;
48623;SDS011;34422;45.802;16.114;2023-06-04T06:36:21;10.55;;;4.70;;
48623;SDS011;34422;45.802;16.114;2023-06-04T06:38:48;7.60;;;5.03;;
48623;SDS011;34422;45.802;16.114;2023-06-04T06:41:14;8.63;;;4.70;;
48623;SDS011;34422;45.802;16.114;2023-06-04T06:43:41;9.18;;;4.68;;
48623;SDS011;34422;45.802;16.114;2023-06-04T06:46:08;8.13;;;4.95;;
48623;SDS011;34422;45.802;16.114;2023-06-04T06:48:35;10.25;;;4.93;;
48623;SDS011;34422;45.802;16.114;2023-06-04T06:51:02;10.95;;;5.90;;
48623;SDS011;34422;45.802;16.114;2023-06-04T06:53:29;10.63;;;6.15;;
48623;SDS011;34422;45.802;16.114;2023-06-04T06:55:56;8.57;;;5.07;;
48623;SDS011;34422;45.802;16.114;2023-06-04T06:58:23;7.13;;;4.75;;
48623;SDS011;34422;45.802;16.114;2023-06-04T07:00:49;9.07;;;4.45;;
48623;SDS011;34422;45.802;16.114;2023-06-04T07:03:16;7.85;;;4.57;;
48623;SDS011;34422;45.802;16.114;2023-06-04T07:05:43;8.10;;;4.85;;
48623;SDS011;34422;45.802;16.114;2023-06-04T07:08:10;9.38;;;5.43;;
48623;SDS011;34422;45.802;16.114;2023-06-04T07:10:37;10.00;;;5.38;;
48623;SDS011;34422;45.802;16.114;2023-06-04T07:13:03;7.55;;;5.18;;
48623;SDS011;34422;45.802;16.114;2023-06-04T07:15:30;9.10;;;5.18;;
48623;SDS011;34422;45.802;16.114;2023-06-04T07:17:57;9.15;;;5.80;;
48623;SDS011;34422;45.802;16.114;2023-06-04T07:20:24;11.23;;;6.00;;
48623;SDS011;34422;45.802;16.114;2023-06-04T07:22:50;7.13;;;4.60;;
48623;SDS011;34422;45.802;16.114;2023-06-04T07:25:17;13.60;;;5.38;;
48623;SDS011;34422;45.802;16.114;2023-06-04T07:27:44;9.57;;;4.68;;
48623;SDS011;34422;45.802;16.114;2023-06-04T07:30:11;8.48;;;5.53;;
48623;SDS011;34422;45.802;16.114;2023-06-04T07:32:38;8.55;;;5.70;;
48623;SDS011;34422;45.802;16.114;2023-06-04T07:35:05;9.48;;;5.57;;
48623;SDS011;34422;45.802;16.114;2023-06-04T07:37:32;9.73;;;5.22;;
48623;SDS011;34422;45.802;16.114;2023-06-04T07:39:59;15.43;;;6.18;;
48623;SDS011;34422;45.802;16.114;2023-06-04T07:42:26;9.15;;;4.80;;
48623;SDS011;34422;45.802;16.114;2023-06-04T07:44:52;8.95;;;5.35;;
48623;SDS011;34422;45.802;16.114;2023-06-04T07:47:19;9.65;;;5.18;;
48623;SDS011;34422;45.802;16.114;2023-06-04T07:49:46;8.32;;;4.93;;
48623;SDS011;34422;45.802;16.114;2023-06-04T07:52:13;9.65;;;5.63;;
48623;SDS011;34422;45.802;16.114;2023-06-04T07:54:41;11.15;;;4.40;;
48623;SDS011;34422;45.802;16.114;2023-06-04T07:57:08;7.90;;;5.20;;
48623;SDS011;34422;45.802;16.114;2023-06-04T07:59:35;9.57;;;4.97;;
48623;SDS011;34422;45.802;16.114;2023-06-04T08:02:02;10.57;;;6.00;;
48623;SDS011;34422;45.802;16.114;2023-06-04T08:04:29;6.97;;;4.97;;
48623;SDS011;34422;45.802;16.114;2023-06-04T08:06:57;11.73;;;5.13;;
48623;SDS011;34422;45.802;16.114;2023-06-04T08:09:23;10.05;;;5.47;;
48623;SDS011;34422;45.802;16.114;2023-06-04T08:11:50;9.40;;;5.80;;
48623;SDS011;34422;45.802;16.114;2023-06-04T08:14:18;10.68;;;5.35;;
48623;SDS011;34422;45.802;16.114;2023-06-04T08:16:49;9.68;;;5.22;;
48623;SDS011;34422;45.802;16.114;2023-06-04T08:19:17;9.98;;;5.50;;
48623;SDS011;34422;45.802;16.114;2023-06-04T08:21:44;9.80;;;6.03;;
48623;SDS011;34422;45.802;16.114;2023-06-04T08:24:12;7.43;;;5.18;;
48623;SDS011;34422;45.802;16.114;2023-06-04T08:26:39;10.02;;;5.72;;
48623;SDS011;34422;45.802;16.114;2023-06-04T08:29:06;14.52;;;5.50;;
48623;SDS011;34422;45.802;16.114;2023-06-04T08:31:33;10.15;;;4.82;;
48623;SDS011;34422;45.802;16.114;2023-06-04T08:33:59;7.88;;;5.30;;
48623;SDS011;34422;45.802;16.114;2023-06-04T08:36:27;8.57;;;5.10;;
48623;SDS011;34422;45.802;16.114;2023-06-04T08:38:54;13.25;;;6.15;;
48623;SDS011;34422;45.802;16.114;2023-06-04T08:41:26;9.20;;;5.18;;
48623;SDS011;34422;45.802;16.114;2023-06-04T08:43:55;10.75;;;5.97;;
48623;SDS011;34422;45.802;16.114;2023-06-04T08:46:24;12.13;;;6.60;;
48623;SDS011;34422;45.802;16.114;2023-06-04T08:48:54;9.77;;;5.78;;
48623;SDS011;34422;45.802;16.114;2023-06-04T08:51:26;8.18;;;5.82;;
48623;SDS011;34422;45.802;16.114;2023-06-04T08:53:55;9.45;;;6.78;;
48623;SDS011;34422;45.802;16.114;2023-06-04T08:56:23;8.25;;;5.60;;
48623;SDS011;34422;45.802;16.114;2023-06-04T08:58:52;8.82;;;6.15;;
48623;SDS011;34422;45.802;16.114;2023-06-04T09:01:23;15.35;;;6.35;;
48623;SDS011;34422;45.802;16.114;2023-06-04T09:03:50;16.58;;;7.70;;
48623;SDS011;34422;45.802;16.114;2023-06-04T09:06:17;13.15;;;6.47;;
48623;SDS011;34422;45.802;16.114;2023-06-04T09:08:44;8.60;;;6.07;;
48623;SDS011;34422;45.802;16.114;2023-06-04T09:11:13;9.45;;;6.43;;
48623;SDS011;34422;45.802;16.114;2023-06-04T09:13:42;17.23;;;6.90;;
48623;SDS011;34422;45.802;16.114;2023-06-04T09:16:12;10.63;;;6.22;;
48623;SDS011;34422;45.802;16.114;2023-06-04T09:18:39;10.35;;;5.93;;
48623;SDS011;34422;45.802;16.114;2023-06-04T09:21:07;13.27;;;6.78;;
48623;SDS011;34422;45.802;16.114;2023-06-04T09:23:36;7.15;;;5.47;;
48623;SDS011;34422;45.802;16.114;2023-06-04T09:26:10;11.18;;;5.50;;
48623;SDS011;34422;45.802;16.114;2023-06-04T09:28:41;9.45;;;5.85;;
48623;SDS011;34422;45.802;16.114;2023-06-04T09:31:15;12.57;;;6.82;;
48623;SDS011;34422;45.802;16.114;2023-06-04T09:36:10;11.05;;;5.43;;
48623;SDS011;34422;45.802;16.114;2023-06-04T09:38:37;14.43;;;6.15;;
48623;SDS011;34422;45.802;16.114;2023-06-04T09:41:10;7.13;;;4.85;;
48623;SDS011;34422;45.802;16.114;2023-06-04T09:43:38;7.68;;;5.57;;
48623;SDS011;34422;45.802;16.114;2023-06-04T09:48:37;9.68;;;5.32;;
48623;SDS011;34422;45.802;16.114;2023-06-04T09:53:54;10.00;;;6.43;;
48623;SDS011;34422;45.802;16.114;2023-06-04T09:56:22;7.65;;;5.38;;
48623;SDS011;34422;45.802;16.114;2023-06-04T09:58:49;15.57;;;5.80;;
48623;SDS011;34422;45.802;16.114;2023-06-04T10:01:20;8.52;;;5.03;;
48623;SDS011;34422;45.802;16.114;2023-06-04T10:03:47;8.75;;;5.53;;
48623;SDS011;34422;45.802;16.114;2023-06-04T10:06:17;8.07;;;5.53;;
48623;SDS011;34422;45.802;16.114;2023-06-04T10:08:45;8.75;;;6.03;;
48623;SDS011;34422;45.802;16.114;2023-06-04T10:11:14;8.30;;;5.97;;
48623;SDS011;34422;45.802;16.114;2023-06-04T10:14:03;8.30;;;5.70;;
48623;SDS011;34422;45.802;16.114;2023-06-04T10:16:38;10.25;;;6.30;;
48623;SDS011;34422;45.802;16.114;2023-06-04T10:19:07;7.85;;;5.95;;
48623;SDS011;34422;45.802;16.114;2023-06-04T10:21:34;10.25;;;6.65;;
48623;SDS011;34422;45.802;16.114;2023-06-04T10:24:02;10.68;;;5.68;;
48623;SDS011;34422;45.802;16.114;2023-06-04T10:26:30;8.23;;;6.18;;
48623;SDS011;34422;45.802;16.114;2023-06-04T10:29:00;12.45;;;6.50;;
48623;SDS011;34422;45.802;16.114;2023-06-04T10:31:28;10.45;;;6.38;;
48623;SDS011;34422;45.802;16.114;2023-06-04T10:33:56;8.98;;;5.80;;
48623;SDS011;34422;45.802;16.114;2023-06-04T10:36:23;11.32;;;6.47;;
48623;SDS011;34422;45.802;16.114;2023-06-04T10:38:55;10.30;;;6.28;;
48623;SDS011;34422;45.802;16.114;2023-06-04T10:41:22;9.65;;;6.32;;
48623;SDS011;34422;45.802;16.114;2023-06-04T10:43:51;8.73;;;5.85;;
48623;SDS011;34422;45.802;16.114;2023-06-04T10:46:36;9.68;;;6.05;;
48623;SDS011;34422;45.802;16.114;2023-06-04T10:49:05;10.43;;;5.90;;
48623;SDS011;34422;45.802;16.114;2023-06-04T10:51:32;14.38;;;6.10;;
48623;SDS011;34422;45.802;16.114;2023-06-04T10:54:01;13.02;;;6.60;;
48623;SDS011;34422;45.802;16.114;2023-06-04T10:56:29;8.73;;;5.88;;
48623;SDS011;34422;45.802;16.114;2023-06-04T10:59:14;8.77;;;5.60;;
48623;SDS011;34422;45.802;16.114;2023-06-04T11:01:42;9.07;;;6.45;;
48623;SDS011;34422;45.802;16.114;2023-06-04T11:04:19;10.45;;;7.80;;
48623;SDS011;34422;45.802;16.114;2023-06-04T11:06:46;9.13;;;7.05;;
48623;SDS011;34422;45.802;16.114;2023-06-04T11:09:14;12.77;;;7.20;;
48623;SDS011;34422;45.802;16.114;2023-06-04T11:11:43;10.50;;;7.03;;
48623;SDS011;34422;45.802;16.114;2023-06-04T11:14:10;9.90;;;7.25;;
48623;SDS011;34422;45.802;16.114;2023-06-04T11:16:42;10.43;;;6.93;;
48623;SDS011;34422;45.802;16.114;2023-06-04T11:19:09;10.05;;;7.50;;
48623;SDS011;34422;45.802;16.114;2023-06-04T11:21:36;10.13;;;7.30;;
48623;SDS011;34422;45.802;16.114;2023-06-04T11:24:04;13.18;;;7.70;;
48623;SDS011;34422;45.802;16.114;2023-06-04T11:26:32;10.50;;;7.57;;
48623;SDS011;34422;45.802;16.114;2023-06-04T11:29:00;10.13;;;6.60;;
48623;SDS011;34422;45.802;16.114;2023-06-04T11:31:27;10.52;;;7.07;;
48623;SDS011;34422;45.802;16.114;2023-06-04T11:33:54;13.23;;;7.40;;
48623;SDS011;34422;45.802;16.114;2023-06-04T11:36:28;10.68;;;7.03;;
48623;SDS011;34422;45.802;16.114;2023-06-04T11:39:00;9.85;;;6.68;;
48623;SDS011;34422;45.802;16.114;2023-06-04T11:41:31;11.60;;;7.38;;
48623;SDS011;34422;45.802;16.114;2023-06-04T11:44:03;10.15;;;7.55;;
48623;SDS011;34422;45.802;16.114;2023-06-04T11:46:32;10.05;;;7.07;;
48623;SDS011;34422;45.802;16.114;2023-06-04T11:48:59;10.98;;;6.70;;
48623;SDS011;34422;45.802;16.114;2023-06-04T11:51:26;8.82;;;6.75;;
48623;SDS011;34422;45.802;16.114;2023-06-04T11:53:53;10.82;;;7.32;;
48623;SDS011;34422;45.802;16.114;2023-06-04T11:56:22;9.65;;;6.78;;
48623;SDS011;34422;45.802;16.114;2023-06-04T11:58:53;11.30;;;7.30;;
48623;SDS011;34422;45.802;16.114;2023-06-04T12:01:21;8.52;;;6.95;;
48623;SDS011;34422;45.802;16.114;2023-06-04T12:03:49;10.93;;;6.97;;
48623;SDS011;34422;45.802;16.114;2023-06-04T12:06:16;10.25;;;7.07;;
48623;SDS011;34422;45.802;16.114;2023-06-04T12:08:46;8.73;;;6.75;;
48623;SDS011;34422;45.802;16.114;2023-06-04T12:11:27;9.00;;;6.80;;
48623;SDS011;34422;45.802;16.114;2023-06-04T12:13:58;11.25;;;6.70;;
48623;SDS011;34422;45.802;16.114;2023-06-04T12:16:27;10.85;;;7.13;;
48623;SDS011;34422;45.802;16.114;2023-06-04T12:19:07;8.52;;;6.78;;
48623;SDS011;34422;45.802;16.114;2023-06-04T12:21:34;10.43;;;6.47;;
48623;SDS011;34422;45.802;16.114;2023-06-04T12:24:20;8.13;;;6.10;;
48623;SDS011;34422;45.802;16.114;2023-06-04T12:26:47;9.57;;;6.20;;
48623;SDS011;34422;45.802;16.114;2023-06-04T12:29:15;9.88;;;7.07;;
48623;SDS011;34422;45.802;16.114;2023-06-04T12:31:44;9.38;;;6.97;;
48623;SDS011;34422;45.802;16.114;2023-06-04T12:34:15;8.43;;;6.22;;
48623;SDS011;34422;45.802;16.114;2023-06-04T12:36:44;10.82;;;6.80;;
48623;SDS011;34422;45.802;16.114;2023-06-04T12:39:10;9.77;;;7.20;;
48623;SDS011;34422;45.802;16.114;2023-06-04T12:41:37;10.07;;;7.28;;
48623;SDS011;34422;45.802;16.114;2023-06-04T12:44:04;10.52;;;6.93;;
48623;SDS011;34422;45.802;16.114;2023-06-04T12:46:31;9.60;;;6.38;;
48623;SDS011;34422;45.802;16.114;2023-06-04T12:48:58;10.15;;;6.22;;
48623;SDS011;34422;45.802;16.114;2023-06-04T12:51:24;9.82;;;6.88;;
48623;SDS011;34422;45.802;16.114;2023-06-04T12:53:53;10.32;;;6.93;;
48623;SDS011;34422;45.802;16.114;2023-06-04T12:56:22;9.73;;;7.05;;
48623;SDS011;34422;45.802;16.114;2023-06-04T12:58:54;9.70;;;6.85;;
48623;SDS011;34422;45.802;16.114;2023-06-04T13:01:22;12.63;;;6.75;;
48623;SDS011;34422;45.802;16.114;2023-06-04T13:03:52;9.77;;;7.38;;
48623;SDS011;34422;45.802;16.114;2023-06-04T13:06:20;8.85;;;6.57;;
48623;SDS011;34422;45.802;16.114;2023-06-04T13:08:46;9.65;;;6.82;;
48623;SDS011;34422;45.802;16.114;2023-06-04T13:11:13;11.85;;;7.10;;
48623;SDS011;34422;45.802;16.114;2023-06-04T13:13:40;10.20;;;6.72;;
48623;SDS011;34422;45.802;16.114;2023-06-04T13:16:17;8.27;;;6.72;;
48623;SDS011;34422;45.802;16.114;2023-06-04T13:18:44;14.00;;;10.93;;
48623;SDS011;34422;45.802;16.114;2023-06-04T13:21:10;23.45;;;17.92;;
48623;SDS011;34422;45.802;16.114;2023-06-04T13:23:38;17.83;;;13.90;;
48623;SDS011;34422;45.802;16.114;2023-06-04T13:26:05;13.65;;;8.85;;
48623;SDS011;34422;45.802;16.114;2023-06-04T13:28:33;18.50;;;12.32;;
48623;SDS011;34422;45.802;16.114;2023-06-04T13:31:00;21.02;;;14.38;;
48623;SDS011;34422;45.802;16.114;2023-06-04T13:33:31;14.80;;;10.70;;
48623;SDS011;34422;45.802;16.114;2023-06-04T13:36:03;9.80;;;7.90;;
48623;SDS011;34422;45.802;16.114;2023-06-04T13:38:31;8.80;;;6.47;;
48623;SDS011;34422;45.802;16.114;2023-06-04T13:40:59;9.57;;;7.03;;
48623;SDS011;34422;45.802;16.114;2023-06-04T13:43:26;10.60;;;7.53;;
48623;SDS011;34422;45.802;16.114;2023-06-04T13:45:53;9.27;;;7.30;;
48623;SDS011;34422;45.802;16.114;2023-06-04T13:48:20;12.38;;;6.72;;
48623;SDS011;34422;45.802;16.114;2023-06-04T13:50:47;13.38;;;7.43;;
48623;SDS011;34422;45.802;16.114;2023-06-04T13:53:13;12.10;;;7.50;;
48623;SDS011;34422;45.802;16.114;2023-06-04T13:55:40;10.07;;;7.93;;
48623;SDS011;34422;45.802;16.114;2023-06-04T13:58:07;9.82;;;7.32;;
48623;SDS011;34422;45.802;16.114;2023-06-04T14:00:34;11.02;;;7.75;;
48623;SDS011;34422;45.802;16.114;2023-06-04T14:03:01;8.32;;;7.07;;
48623;SDS011;34422;45.802;16.114;2023-06-04T14:05:28;12.18;;;7.40;;
48623;SDS011;34422;45.802;16.114;2023-06-04T14:07:54;9.25;;;7.47;;
48623;SDS011;34422;45.802;16.114;2023-06-04T14:10:21;11.13;;;8.02;;
48623;SDS011;34422;45.802;16.114;2023-06-04T14:12:48;12.02;;;8.05;;
48623;SDS011;34422;45.802;16.114;2023-06-04T14:15:15;15.10;;;7.70;;
48623;SDS011;34422;45.802;16.114;2023-06-04T14:17:43;12.30;;;8.85;;
48623;SDS011;34422;45.802;16.114;2023-06-04T14:20:10;13.77;;;10.00;;
48623;SDS011;34422;45.802;16.114;2023-06-04T14:22:37;14.52;;;11.30;;
48623;SDS011;34422;45.802;16.114;2023-06-04T14:25:04;18.63;;;10.18;;
48623;SDS011;34422;45.802;16.114;2023-06-04T14:27:32;11.52;;;9.88;;
48623;SDS011;34422;45.802;16.114;2023-06-04T14:30:01;11.30;;;8.68;;
48623;SDS011;34422;45.802;16.114;2023-06-04T14:32:31;16.30;;;12.48;;
48623;SDS011;34422;45.802;16.114;2023-06-04T14:35:00;11.15;;;8.85;;
48623;SDS011;34422;45.802;16.114;2023-06-04T14:37:27;12.05;;;9.00;;
48623;SDS011;34422;45.802;16.114;2023-06-04T14:39:53;15.15;;;9.95;;
48623;SDS011;34422;45.802;16.114;2023-06-04T14:42:20;14.50;;;10.15;;
48623;SDS011;34422;45.802;16.114;2023-06-04T14:44:47;13.25;;;8.82;;